Time;durP1;ratioP1;P1;durP2;ratioP2;P2;SDS_P1;SDS_P2;PMS_P1;PMS_P2;Temp;Humidity;BMP_temperature;BMP_pressure;BME280_temperature;BME280_humidity;BME280_pressure;Samples;Min_cycle;Max_cycle;Signal;HPM_P1;HPM_P2
2023/05/13 03:17:32;;;;;;;2.08;0.65;;;13.60;91.70;;;;;;6217548;22;89460;-82
2023/05/13 03:19:57;;;;;;;2.72;1.00;;;13.50;91.80;;;;;;6251594;22;90733;-81
2023/05/13 03:22:23;;;;;;;1.90;0.93;;;13.50;91.70;;;;;;6278848;22;87153;-79
2023/05/13 03:24:49;;;;;;;2.97;1.00;;;13.50;92.00;;;;;;6279136;22;87244;-80
2023/05/13 03:27:14;;;;;;;1.90;0.80;;;13.60;92.20;;;;;;6277377;22;87942;-81
2023/05/13 03:29:40;;;;;;;3.97;1.25;;;13.60;92.00;;;;;;6278172;22;88184;-80
2023/05/13 03:32:06;;;;;;;5.72;2.47;;;13.60;92.20;;;;;;6279427;22;87381;-80
2023/05/13 03:34:32;;;;;;;4.15;1.73;;;13.60;92.20;;;;;;6281070;22;86629;-82
2023/05/13 03:36:58;;;;;;;2.90;1.35;;;13.60;92.00;;;;;;6285106;22;88317;-81
2023/05/13 03:39:25;;;;;;;2.75;1.13;;;13.60;92.00;;;;;;6285393;22;87418;-81
2023/05/13 03:41:51;;;;;;;5.22;1.88;;;13.60;92.20;;;;;;6284107;22;88202;-80
2023/05/13 03:44:17;;;;;;;5.30;1.67;;;13.60;92.20;;;;;;6283250;22;87362;-79
2023/05/13 03:46:42;;;;;;;3.53;2.00;;;13.70;92.40;;;;;;6251175;22;90062;-79
2023/05/13 03:49:08;;;;;;;4.13;1.95;;;13.70;92.40;;;;;;6279143;22;88781;-82
2023/05/13 03:51:34;;;;;;;4.00;2.25;;;13.70;92.40;;;;;;6281959;22;87195;-84
2023/05/13 03:54:01;;;;;;;4.65;2.42;;;13.80;92.60;;;;;;6282023;22;87325;-80
2023/05/13 03:56:27;;;;;;;5.85;2.60;;;13.80;92.20;;;;;;6245974;22;89157;-82
2023/05/13 03:58:52;;;;;;;6.03;2.75;;;13.80;92.40;;;;;;6271544;22;88331;-80
2023/05/13 04:01:18;;;;;;;5.78;3.17;;;13.80;92.50;;;;;;6251278;22;87539;-81
2023/05/13 04:03:45;;;;;;;4.85;3.13;;;13.70;92.70;;;;;;6275985;22;87372;-80
2023/05/13 04:06:12;;;;;;;4.38;2.60;;;13.80;92.80;;;;;;6277869;22;88388;-81
2023/05/13 04:08:39;;;;;;;7.72;3.47;;;13.70;92.90;;;;;;6272852;22;88482;-81
2023/05/13 04:11:05;;;;;;;6.80;3.45;;;13.70;93.00;;;;;;6277649;22;87577;-81
2023/05/13 04:13:34;;;;;;;8.82;3.95;;;13.80;92.90;;;;;;6277065;22;87477;-78
2023/05/13 04:15:59;;;;;;;5.80;3.05;;;13.80;92.80;;;;;;6271419;22;88566;-80
2023/05/13 04:18:25;;;;;;;5.57;3.40;;;13.80;92.80;;;;;;6244124;22;88434;-80
2023/05/13 04:20:51;;;;;;;4.68;3.10;;;13.90;92.90;;;;;;6238780;22;87324;-81
2023/05/13 04:23:16;;;;;;;5.72;3.38;;;13.80;92.90;;;;;;6247270;22;86664;-82
2023/05/13 04:25:42;;;;;;;6.75;3.65;;;13.80;93.00;;;;;;6247279;22;88548;-79
2023/05/13 04:28:08;;;;;;;4.85;2.67;;;13.90;92.70;;;;;;6246484;22;87766;-79
2023/05/13 04:30:35;;;;;;;5.53;3.65;;;13.90;92.90;;;;;;6247262;22;88507;-83
2023/05/13 04:33:00;;;;;;;6.45;3.03;;;13.90;92.80;;;;;;6242431;22;87440;-78
2023/05/13 04:35:26;;;;;;;5.07;3.08;;;13.90;92.60;;;;;;6240487;22;88581;-78
2023/05/13 04:37:52;;;;;;;6.07;2.90;;;13.90;92.90;;;;;;6244855;22;87626;-76
2023/05/13 04:40:17;;;;;;;5.15;3.10;;;13.90;92.80;;;;;;6245475;22;87595;-78
2023/05/13 04:42:43;;;;;;;5.03;3.13;;;14.00;92.60;;;;;;6244657;22;87600;-81
2023/05/13 04:45:09;;;;;;;5.80;3.50;;;14.00;92.70;;;;;;6242940;22;88992;-82
2023/05/13 04:47:36;;;;;;;5.00;3.10;;;14.00;92.80;;;;;;6245728;22;87701;-79
2023/05/13 04:50:02;;;;;;;5.82;3.63;;;13.90;92.70;;;;;;6246344;22;87200;-81
2023/05/13 04:52:28;;;;;;;5.70;3.45;;;13.90;92.70;;;;;;6247701;22;87473;-79
2023/05/13 04:54:54;;;;;;;5.18;3.53;;;14.00;92.70;;;;;;6245659;22;88431;-78
2023/05/13 04:57:19;;;;;;;8.13;4.10;;;14.00;92.60;;;;;;6248587;22;89043;-79
2023/05/13 04:59:45;;;;;;;6.38;4.18;;;14.10;92.50;;;;;;6246543;22;87396;-77
2023/05/13 05:02:11;;;;;;;7.80;3.65;;;14.10;92.40;;;;;;6247761;22;87441;-78
2023/05/13 05:04:36;;;;;;;5.85;3.50;;;14.10;92.40;;;;;;6245778;22;89036;-78
2023/05/13 05:07:02;;;;;;;8.88;3.42;;;14.10;92.20;;;;;;6247624;22;87812;-78
2023/05/13 05:09:29;;;;;;;4.45;2.92;;;14.20;92.20;;;;;;6246639;22;87251;-78
2023/05/13 05:11:54;;;;;;;6.72;3.30;;;14.20;92.20;;;;;;6263642;22;87134;-80
2023/05/13 05:14:20;;;;;;;5.20;3.38;;;14.30;92.00;;;;;;6266157;22;88780;-80
2023/05/13 05:16:46;;;;;;;6.55;3.70;;;14.20;92.20;;;;;;6265397;22;89277;-78
2023/05/13 05:19:11;;;;;;;7.22;4.40;;;14.20;92.20;;;;;;6236377;22;88830;-78
2023/05/13 05:21:37;;;;;;;7.65;3.95;;;14.20;92.50;;;;;;6240996;22;87960;-78
2023/05/13 05:24:04;;;;;;;5.60;3.65;;;14.30;92.40;;;;;;6219693;22;91104;-81
2023/05/13 05:26:29;;;;;;;6.57;4.00;;;14.40;92.40;;;;;;6246207;22;87669;-79
2023/05/13 05:29:08;;;;;;;7.57;4.25;;;14.40;92.10;;;;;;6238210;22;87317;-77
2023/05/13 05:31:34;;;;;;;7.57;4.93;;;14.50;91.90;;;;;;6239078;22;87659;-78
2023/05/13 05:34:00;;;;;;;8.20;4.57;;;14.50;92.00;;;;;;6243518;22;88719;-80
2023/05/13 05:36:30;;;;;;;7.63;4.50;;;14.60;91.90;;;;;;6241131;22;88777;-77
2023/05/13 05:39:02;;;;;;;8.60;4.38;;;14.60;91.80;;;;;;6213628;22;87420;-77
2023/05/13 05:41:29;;;;;;;8.20;4.32;;;14.60;92.00;;;;;;6219200;22;87622;-77
2023/05/13 05:44:02;;;;;;;8.75;4.82;;;14.70;91.70;;;;;;6216535;22;91021;-78
2023/05/13 05:47:03;;;;;;;11.43;5.78;;;14.80;91.70;;;;;;6241036;22;89245;-76
2023/05/13 05:49:29;;;;;;;7.53;4.30;;;14.80;91.50;;;;;;6242689;22;87464;-79
2023/05/13 05:52:27;;;;;;;7.22;4.40;;;14.80;91.10;;;;;;6243391;22;87306;-79
2023/05/13 05:55:18;;;;;;;7.22;4.45;;;14.80;91.10;;;;;;6239712;22;88962;-80
2023/05/13 06:01:00;;;;;;;10.93;4.70;;;14.80;91.20;;;;;;6236462;22;88086;-78
2023/05/13 06:03:35;;;;;;;8.65;5.03;;;14.90;91.20;;;;;;6245722;22;87004;-79
2023/05/13 06:06:21;;;;;;;7.95;4.55;;;14.90;91.10;;;;;;6219874;22;89458;-79
2023/05/13 06:09:20;;;;;;;6.97;4.18;;;14.90;90.80;;;;;;6246303;22;87407;-78
2023/05/13 06:11:45;;;;;;;7.45;3.05;;;14.90;91.10;;;;;;6242935;22;88419;-78
2023/05/13 06:14:11;;;;;;;4.95;2.97;;;15.00;90.50;;;;;;6247431;22;87739;-79
2023/05/13 06:16:38;;;;;;;4.88;2.83;;;15.00;90.70;;;;;;6214315;22;90902;-78
2023/05/13 06:19:46;;;;;;;4.65;2.22;;;14.90;90.20;;;;;;6218125;22;89480;-78
2023/05/13 06:22:12;;;;;;;2.63;1.50;;;14.90;89.40;;;;;;6218264;22;87379;-77
2023/05/13 06:25:10;;;;;;;4.20;1.58;;;14.80;88.30;;;;;;6240587;22;87388;-79
2023/05/13 06:27:37;;;;;;;3.53;1.75;;;14.70;88.10;;;;;;6094194;23;90546;-79
2023/05/13 06:30:03;;;;;;;3.05;1.70;;;14.70;88.10;;;;;;6119309;23;86832;-76
2023/05/13 06:32:38;;;;;;;3.67;2.08;;;14.60;88.00;;;;;;6194137;22;87405;-77
2023/05/13 06:35:30;;;;;;;5.55;2.45;;;14.60;88.80;;;;;;6247004;22;87324;-77
2023/05/13 06:37:58;;;;;;;6.47;2.85;;;14.60;88.90;;;;;;6218962;22;90979;-77
2023/05/13 06:40:27;;;;;;;6.25;2.90;;;14.60;89.00;;;;;;6219227;22;91777;-77
2023/05/13 06:43:15;;;;;;;6.43;3.67;;;14.70;89.50;;;;;;6179409;22;87686;-77
2023/05/13 06:48:34;;;;;;;6.40;3.65;;;14.90;89.80;;;;;;6183290;22;87819;-78
2023/05/13 06:51:06;;;;;;;7.13;4.18;;;14.90;89.80;;;;;;6180074;22;88352;-78
2023/05/13 06:53:52;;;;;;;10.93;4.40;;;15.00;89.90;;;;;;6180982;22;87546;-77
2023/05/13 06:56:54;;;;;;;7.15;3.85;;;15.00;88.90;;;;;;6159044;22;86770;-77
2023/05/13 06:59:43;;;;;;;7.18;4.43;;;15.00;88.20;;;;;;6157214;22;87724;-77
2023/05/13 07:02:22;;;;;;;9.48;4.13;;;15.00;88.30;;;;;;6182657;22;87401;-78
2023/05/13 07:04:51;;;;;;;11.50;4.88;;;15.00;88.20;;;;;;6181293;22;89008;-78
2023/05/13 07:07:36;;;;;;;6.47;4.03;;;15.00;88.60;;;;;;6157233;22;87785;-77
2023/05/13 07:10:29;;;;;;;7.82;4.88;;;15.00;88.10;;;;;;6183099;22;87873;-78
2023/05/13 07:13:50;;;;;;;9.43;4.60;;;15.10;88.00;;;;;;6161460;22;89798;-78
2023/05/13 07:16:43;;;;;;;7.10;4.45;;;15.10;87.70;;;;;;6247529;22;87393;-77
2023/05/13 07:19:35;;;;;;;8.10;4.50;;;15.10;87.90;;;;;;6248580;22;87480;-75
2023/05/13 07:22:14;;;;;;;9.20;4.32;;;15.20;87.90;;;;;;6221011;22;89480;-75
2023/05/13 07:24:40;;;;;;;9.40;4.57;;;15.20;88.20;;;;;;6218582;22;89038;-78
2023/05/13 07:27:06;;;;;;;7.38;4.78;;;15.30;88.10;;;;;;6247938;22;88272;-78
2023/05/13 07:29:34;;;;;;;7.97;4.03;;;15.30;87.70;;;;;;6248370;22;87373;-77
2023/05/13 07:32:05;;;;;;;7.20;3.65;;;15.30;87.20;;;;;;6219170;22;88544;-78
2023/05/13 07:34:31;;;;;;;7.22;3.95;;;15.30;86.10;;;;;;6246768;22;89558;-76
2023/05/13 07:36:57;;;;;;;6.20;3.85;;;15.30;85.90;;;;;;6248946;22;87899;-76
2023/05/13 07:39:23;;;;;;;8.23;4.38;;;15.40;86.90;;;;;;6250500;22;87706;-77
2023/05/13 07:41:49;;;;;;;7.18;3.72;;;15.40;86.40;;;;;;6249742;22;87388;-77
2023/05/13 07:44:49;;;;;;;9.20;4.93;;;15.40;86.50;;;;;;6247622;22;87460;-76
2023/05/13 07:47:16;;;;;;;9.35;6.13;;;15.50;87.90;;;;;;6247601;22;87608;-78
2023/05/13 07:49:51;;;;;;;7.80;4.90;;;15.40;88.90;;;;;;6216418;22;86811;-77
2023/05/13 07:52:20;;;;;;;8.27;5.13;;;15.40;89.50;;;;;;6246892;22;88064;-77
2023/05/13 07:54:55;;;;;;;8.07;5.40;;;15.50;89.60;;;;;;6219901;22;88299;-76
2023/05/13 07:57:21;;;;;;;8.95;5.05;;;15.50;90.00;;;;;;6246518;22;88478;-77
2023/05/13 07:59:47;;;;;;;9.52;4.88;;;15.50;90.10;;;;;;6248172;22;87488;-78
2023/05/13 08:02:14;;;;;;;8.48;4.78;;;15.60;89.80;;;;;;6246504;22;87507;-79
2023/05/13 08:04:43;;;;;;;9.07;5.13;;;15.70;89.10;;;;;;6247688;22;87623;-77
2023/05/13 08:07:10;;;;;;;9.32;5.47;;;15.70;88.80;;;;;;6247764;22;87639;-79
2023/05/13 08:09:36;;;;;;;9.77;5.70;;;15.70;88.90;;;;;;6247256;22;87431;-79
2023/05/13 08:12:12;;;;;;;9.13;5.05;;;15.80;88.70;;;;;;6220415;22;89959;-76
2023/05/13 08:14:49;;;;;;;9.20;5.03;;;15.80;88.80;;;;;;6220300;22;90390;-77
2023/05/13 08:17:25;;;;;;;7.45;4.85;;;15.70;89.40;;;;;;6244543;22;87104;-76
2023/05/13 08:20:00;;;;;;;7.75;4.80;;;15.80;89.70;;;;;;6221481;22;87629;-76
2023/05/13 08:22:29;;;;;;;9.50;5.38;;;15.70;89.10;;;;;;6246098;22;88814;-77
2023/05/13 08:24:54;;;;;;;9.45;5.35;;;15.80;89.40;;;;;;6247001;22;88239;-76
2023/05/13 08:27:24;;;;;;;8.57;5.07;;;15.90;88.90;;;;;;6247469;22;87514;-76
2023/05/13 08:29:50;;;;;;;10.43;6.22;;;16.10;88.50;;;;;;6220870;22;87152;-76
2023/05/13 08:32:23;;;;;;;7.72;5.03;;;16.00;88.30;;;;;;6240134;22;88179;-76
2023/05/13 08:35:19;;;;;;;7.32;4.90;;;16.10;88.00;;;;;;6246778;22;88280;-77
2023/05/13 08:38:18;;;;;;;9.13;5.15;;;16.20;87.60;;;;;;6217894;22;87424;-76
2023/05/13 08:40:45;;;;;;;8.00;4.63;;;16.30;86.90;;;;;;6248222;22;86701;-76
2023/05/13 08:43:51;;;;;;;8.00;5.32;;;16.40;87.20;;;;;;6220801;22;89654;-77
2023/05/13 08:49:20;;;;;;;7.97;5.00;;;16.30;86.80;;;;;;6242465;22;88431;-76
2023/05/13 08:51:56;;;;;;;8.55;5.13;;;16.00;87.00;;;;;;6246776;22;87281;-77
2023/05/13 08:54:23;;;;;;;8.27;5.15;;;15.90;86.90;;;;;;6247270;22;87637;-77
2023/05/13 08:56:49;;;;;;;7.50;4.68;;;15.90;87.40;;;;;;6220041;22;88902;-76
2023/05/13 08:59:15;;;;;;;7.10;4.45;;;15.70;87.80;;;;;;6248861;22;87594;-76
2023/05/13 09:01:40;;;;;;;8.35;5.35;;;15.70;87.80;;;;;;6249544;22;87289;-77
2023/05/13 09:04:08;;;;;;;8.00;4.53;;;15.80;87.60;;;;;;6247277;22;87997;-76
2023/05/13 09:06:34;;;;;;;10.85;5.32;;;15.70;88.00;;;;;;6246751;22;87677;-77
2023/05/13 09:09:01;;;;;;;7.85;4.80;;;15.50;87.90;;;;;;6249375;22;87379;-77
2023/05/13 09:11:28;;;;;;;8.80;4.95;;;15.60;88.40;;;;;;6247428;22;87330;-77
2023/05/13 09:14:02;;;;;;;7.45;4.70;;;15.60;88.60;;;;;;6247740;22;88461;-78
2023/05/13 09:16:28;;;;;;;7.75;4.65;;;15.60;87.70;;;;;;6247483;22;88755;-75
2023/05/13 09:19:03;;;;;;;10.93;4.68;;;15.60;87.10;;;;;;6247691;22;87379;-78
2023/05/13 09:21:30;;;;;;;7.28;4.70;;;15.70;87.10;;;;;;6247483;22;86968;-76
2023/05/13 09:24:20;;;;;;;11.88;5.13;;;16.00;87.00;;;;;;6247449;22;88277;-77
2023/05/13 09:26:50;;;;;;;7.22;4.68;;;16.40;85.40;;;;;;6247893;22;87586;-78
2023/05/13 09:29:23;;;;;;;8.68;5.05;;;16.80;84.20;;;;;;6247298;22;88219;-79
2023/05/13 09:31:53;;;;;;;9.40;4.70;;;17.00;83.90;;;;;;6247835;22;86520;-78
2023/05/13 09:34:30;;;;;;;12.10;4.78;;;17.10;82.30;;;;;;6247067;22;87398;-77
2023/05/13 09:37:04;;;;;;;8.27;4.82;;;17.20;80.80;;;;;;6215195;22;87585;-76
2023/05/13 09:39:33;;;;;;;7.20;4.30;;;17.30;80.30;;;;;;6215040;22;88745;-74
2023/05/13 09:42:00;;;;;;;6.53;4.13;;;17.30;79.70;;;;;;6190708;22;87686;-77
2023/05/13 09:44:26;;;;;;;7.35;4.38;;;17.00;80.50;;;;;;6215820;22;88195;-76
2023/05/13 09:46:53;;;;;;;8.93;4.35;;;17.00;80.70;;;;;;6189004;22;91654;-77
2023/05/13 09:49:23;;;;;;;7.43;3.92;;;17.10;81.20;;;;;;6215873;22;87296;-79
2023/05/13 09:51:48;;;;;;;7.55;4.85;;;17.20;81.10;;;;;;6217443;22;86997;-76
2023/05/13 09:54:15;;;;;;;6.30;4.03;;;17.20;81.30;;;;;;6216701;22;87528;-77
2023/05/13 09:56:41;;;;;;;7.68;4.60;;;17.20;82.60;;;;;;6215336;22;87104;-78
2023/05/13 09:59:06;;;;;;;6.30;3.60;;;17.20;81.80;;;;;;6215027;22;86969;-79
2023/05/13 10:01:34;;;;;;;7.07;4.55;;;17.30;82.40;;;;;;6214710;22;87541;-75
2023/05/13 10:03:59;;;;;;;5.47;3.70;;;17.50;82.20;;;;;;6213050;22;88267;-76
2023/05/13 10:06:29;;;;;;;7.03;4.07;;;17.80;82.20;;;;;;6215752;22;88082;-77
2023/05/13 10:08:57;;;;;;;;;;;17.90;81.40;;;;;;6216315;22;86994;-78
2023/05/13 10:11:24;;;;;;;7.00;3.50;;;17.90;80.10;;;;;;6218465;22;87194;-77
2023/05/13 10:13:57;;;;;;;7.53;3.33;;;17.80;79.90;;;;;;6216187;22;88345;-78
2023/05/13 10:16:24;;;;;;;6.00;3.40;;;17.80;80.20;;;;;;6215453;22;87768;-80
2023/05/13 10:18:50;;;;;;;5.78;3.53;;;17.80;79.90;;;;;;6215052;22;87420;-78
2023/05/13 10:21:17;;;;;;;7.55;3.88;;;17.80;79.70;;;;;;6216581;22;87208;-78
2023/05/13 10:23:45;;;;;;;5.43;3.97;;;17.80;80.20;;;;;;6215165;22;87417;-78
2023/05/13 10:26:11;;;;;;;10.60;3.70;;;18.00;79.60;;;;;;6215112;22;87692;-78
2023/05/13 10:28:37;;;;;;;6.05;3.63;;;18.30;78.90;;;;;;6213884;22;88284;-79
2023/05/13 10:31:05;;;;;;;7.57;4.20;;;18.30;77.90;;;;;;6214116;22;87300;-78
2023/05/13 10:33:31;;;;;;;8.07;4.38;;;18.70;77.50;;;;;;6185875;22;91800;-78
2023/05/13 10:36:25;;;;;;;6.57;4.25;;;19.00;77.20;;;;;;6234227;22;87729;-77
2023/05/13 10:39:00;;;;;;;6.47;3.78;;;19.10;76.90;;;;;;6246468;22;87510;-79
2023/05/13 10:41:50;;;;;;;5.53;3.78;;;19.30;75.80;;;;;;6245820;22;87229;-77
2023/05/13 10:44:18;;;;;;;5.60;3.58;;;19.50;73.70;;;;;;6246639;22;88377;-79
2023/05/13 10:46:47;;;;;;;4.85;3.42;;;19.50;73.70;;;;;;6245250;22;87635;-77
2023/05/13 10:49:15;;;;;;;8.65;3.58;;;19.60;73.70;;;;;;6246884;22;87255;-77
2023/05/13 10:51:48;;;;;;;6.28;3.70;;;19.60;73.60;;;;;;6245311;22;87099;-79
2023/05/13 10:54:22;;;;;;;5.57;3.83;;;19.50;73.60;;;;;;6244754;22;88629;-78
2023/05/13 10:56:57;;;;;;;5.07;3.42;;;19.30;73.90;;;;;;6245070;22;88704;-77
2023/05/13 10:59:23;;;;;;;6.13;3.80;;;19.30;74.30;;;;;;6246721;22;87566;-80
2023/05/13 11:01:49;;;;;;;6.57;3.88;;;19.70;74.50;;;;;;6246168;22;87037;-77
2023/05/13 11:04:16;;;;;;;7.72;3.65;;;19.90;73.40;;;;;;6246546;22;87915;-78
2023/05/13 11:06:45;;;;;;;5.65;3.55;;;20.10;73.40;;;;;;6244225;22;87798;-79
2023/05/13 11:09:37;;;;;;;5.85;3.40;;;20.50;72.90;;;;;;6245407;22;87269;-78
2023/05/13 11:12:03;;;;;;;5.60;3.60;;;21.10;70.40;;;;;;6241066;22;87727;-79
2023/05/13 11:14:30;;;;;;;5.90;3.70;;;21.10;69.20;;;;;;6247213;22;87357;-78
2023/05/13 11:17:03;;;;;;;6.15;3.50;;;21.00;70.60;;;;;;6245680;22;87884;-79
2023/05/13 11:19:30;;;;;;;7.32;3.55;;;20.60;69.40;;;;;;6219038;22;88873;-78
2023/05/13 11:22:04;;;;;;;5.53;3.63;;;20.10;70.30;;;;;;6248301;22;87680;-77
2023/05/13 11:24:30;;;;;;;8.15;4.35;;;19.80;72.00;;;;;;6245929;22;87521;-78
2023/05/13 11:26:58;;;;;;;6.47;3.85;;;19.50;72.50;;;;;;6245945;22;87963;-78
2023/05/13 11:29:37;;;;;;;8.02;4.00;;;19.30;73.20;;;;;;6246669;22;87350;-78
2023/05/13 11:32:05;;;;;;;7.15;3.83;;;19.30;73.60;;;;;;6219672;22;87648;-79
2023/05/13 11:34:32;;;;;;;8.20;3.88;;;19.20;73.80;;;;;;6244417;22;88322;-78
2023/05/13 11:37:09;;;;;;;6.22;4.20;;;19.00;73.70;;;;;;6245801;22;88358;-77
2023/05/13 11:39:38;;;;;;;6.88;3.88;;;19.00;74.40;;;;;;6246191;22;87394;-77
2023/05/13 11:42:10;;;;;;;6.60;3.53;;;19.30;74.50;;;;;;6246634;22;87385;-77
2023/05/13 11:44:45;;;;;;;6.60;3.33;;;19.20;73.40;;;;;;6219308;22;91666;-79
2023/05/13 11:47:11;;;;;;;6.05;3.30;;;19.00;74.20;;;;;;6248035;22;88805;-77
2023/05/13 11:49:42;;;;;;;5.95;3.45;;;19.00;73.70;;;;;;6247550;22;87190;-77
2023/05/13 11:52:16;;;;;;;9.27;4.40;;;18.80;73.90;;;;;;6246887;22;87315;-76
2023/05/13 11:54:53;;;;;;;8.27;5.05;;;18.90;74.40;;;;;;6246600;22;88523;-78
2023/05/13 11:57:22;;;;;;;6.03;3.55;;;19.00;73.70;;;;;;6246850;22;87969;-78
2023/05/13 12:00:06;;;;;;;7.43;3.80;;;18.90;74.00;;;;;;6246309;22;86953;-78
2023/05/13 12:02:34;;;;;;;6.05;3.95;;;19.00;72.70;;;;;;6247633;22;86414;-78
2023/05/13 12:05:07;;;;;;;10.15;4.07;;;19.20;73.30;;;;;;6247007;22;88836;-78
2023/05/13 12:07:33;;;;;;;5.72;3.55;;;19.50;73.20;;;;;;6246754;22;87787;-77
2023/05/13 12:10:00;;;;;;;6.78;4.40;;;19.70;72.40;;;;;;6246260;22;89915;-78
2023/05/13 12:12:28;;;;;;;7.82;3.78;;;19.90;72.30;;;;;;6248399;22;87266;-78
2023/05/13 12:15:01;;;;;;;6.53;3.72;;;20.10;70.60;;;;;;6245606;22;88499;-78
2023/05/13 12:17:27;;;;;;;5.85;3.90;;;20.50;71.50;;;;;;6246995;22;89187;-78
2023/05/13 12:20:11;;;;;;;6.00;3.45;;;21.00;70.40;;;;;;6248102;22;87732;-77
2023/05/13 12:22:47;;;;;;;6.07;3.75;;;21.10;67.50;;;;;;6246801;22;87318;-79
2023/05/13 12:25:32;;;;;;;5.57;3.78;;;21.30;68.30;;;;;;6247824;22;87427;-77
2023/05/13 12:27:58;;;;;;;6.60;3.80;;;21.50;67.70;;;;;;6247537;22;88180;-78
2023/05/13 12:30:24;;;;;;;7.30;4.03;;;21.40;66.50;;;;;;6248713;22;87330;-78
2023/05/13 12:32:50;;;;;;;7.80;4.18;;;21.30;67.40;;;;;;6245378;22;87489;-78
2023/05/13 12:35:16;;;;;;;5.68;3.85;;;21.40;67.60;;;;;;6240489;22;89504;-79
2023/05/13 12:37:42;;;;;;;7.60;4.25;;;21.20;68.50;;;;;;6245412;22;88180;-77
2023/05/13 12:40:12;;;;;;;6.05;3.83;;;21.20;67.20;;;;;;6241712;22;87449;-77
2023/05/13 12:42:43;;;;;;;5.47;3.60;;;21.10;67.60;;;;;;6243158;22;87608;-78
2023/05/13 12:45:09;;;;;;;8.82;3.33;;;21.20;67.80;;;;;;6242539;22;88131;-77
2023/05/13 12:47:51;;;;;;;5.00;3.20;;;21.40;68.30;;;;;;6244825;22;88044;-79
2023/05/13 12:50:16;;;;;;;8.35;4.38;;;21.40;66.70;;;;;;6233332;22;87632;-80
2023/05/13 12:52:42;;;;;;;4.72;3.08;;;21.40;66.50;;;;;;6241068;22;86632;-77
2023/05/13 12:55:08;;;;;;;6.35;3.25;;;21.30;66.20;;;;;;6239334;22;88456;-77
2023/05/13 12:57:34;;;;;;;7.40;3.53;;;21.00;66.70;;;;;;6241623;22;87894;-79
2023/05/13 13:00:00;;;;;;;6.60;3.95;;;21.00;67.50;;;;;;6236270;22;88847;-77
2023/05/13 13:02:26;;;;;;;5.07;3.30;;;21.10;65.90;;;;;;6244751;22;87210;-77
2023/05/13 13:04:51;;;;;;;6.07;3.15;;;21.00;66.70;;;;;;6242729;22;88107;-78
2023/05/13 13:07:17;;;;;;;5.53;3.33;;;21.00;67.00;;;;;;6237461;22;88526;-78
2023/05/13 13:09:43;;;;;;;4.97;2.67;;;20.90;67.50;;;;;;6241312;22;87359;-81
2023/05/13 13:12:08;;;;;;;4.93;2.88;;;20.80;67.40;;;;;;6246780;22;87396;-79
2023/05/13 13:14:34;;;;;;;4.88;3.10;;;20.80;66.60;;;;;;6244344;22;88671;-79
2023/05/13 13:17:00;;;;;;;5.88;3.08;;;20.80;66.80;;;;;;6245875;22;88239;-77
2023/05/13 13:19:25;;;;;;;5.60;3.25;;;20.70;67.80;;;;;;6244714;22;87412;-77
2023/05/13 13:21:51;;;;;;;5.45;3.83;;;20.60;66.90;;;;;;6244917;22;87642;-78
2023/05/13 13:24:17;;;;;;;5.88;3.67;;;20.40;68.70;;;;;;6241392;22;88976;-78
2023/05/13 13:26:43;;;;;;;5.88;3.47;;;20.20;68.10;;;;;;6245581;22;89920;-78
2023/05/13 13:29:10;;;;;;;5.82;3.58;;;19.90;68.30;;;;;;6218130;22;87353;-78
2023/05/13 13:31:35;;;;;;;7.55;3.53;;;19.70;68.80;;;;;;6245667;22;87379;-79
2023/05/13 13:34:03;;;;;;;6.15;3.60;;;19.30;70.30;;;;;;6243835;22;87936;-78
2023/05/13 13:36:30;;;;;;;6.65;3.85;;;19.40;70.90;;;;;;6240400;22;87866;-77
2023/05/13 13:38:56;;;;;;;5.78;3.60;;;19.20;70.40;;;;;;6245720;22;87454;-79
2023/05/13 13:41:24;;;;;;;6.32;4.20;;;19.40;70.10;;;;;;6246267;22;87093;-77
2023/05/13 13:43:50;;;;;;;7.63;3.88;;;19.30;70.80;;;;;;6245207;22;87840;-78
2023/05/13 13:46:16;;;;;;;4.88;3.33;;;19.30;70.50;;;;;;6243891;22;87756;-78
2023/05/13 13:48:41;;;;;;;5.90;3.97;;;19.30;71.10;;;;;;6244879;22;88387;-77
2023/05/13 13:51:07;;;;;;;6.70;3.70;;;19.20;72.20;;;;;;6244440;22;87672;-78
2023/05/13 13:53:33;;;;;;;6.00;3.50;;;19.20;71.90;;;;;;6241792;22;88461;-77
2023/05/13 13:55:58;;;;;;;5.70;3.60;;;19.30;72.20;;;;;;6245530;22;87729;-76
2023/05/13 13:58:24;;;;;;;5.63;3.15;;;19.30;71.40;;;;;;6245501;22;87268;-77
2023/05/13 14:00:51;;;;;;;6.78;4.32;;;19.20;71.60;;;;;;6245086;22;87666;-78
2023/05/13 14:03:17;;;;;;;7.53;4.28;;;19.20;71.60;;;;;;6244222;22;88114;-78
2023/05/13 14:05:43;;;;;;;5.95;3.53;;;19.00;71.70;;;;;;6241305;22;87787;-78
2023/05/13 14:08:10;;;;;;;6.15;4.30;;;19.10;72.70;;;;;;6242237;22;87358;-78
2023/05/13 14:10:36;;;;;;;5.40;3.63;;;19.20;72.30;;;;;;6217367;22;87398;-77
2023/05/13 14:13:02;;;;;;;5.35;3.13;;;19.20;73.10;;;;;;6245448;22;89887;-77
2023/05/13 14:15:29;;;;;;;6.03;3.65;;;19.30;72.20;;;;;;6245686;22;88621;-79
2023/05/13 14:17:55;;;;;;;6.07;3.42;;;19.40;72.00;;;;;;6244507;22;87815;-77
2023/05/13 14:20:22;;;;;;;7.07;3.47;;;19.40;71.50;;;;;;6216949;22;87062;-78
2023/05/13 14:22:48;;;;;;;6.63;3.75;;;19.50;71.30;;;;;;6244142;22;87789;-78
2023/05/13 14:25:13;;;;;;;6.50;3.25;;;19.50;71.30;;;;;;6238881;22;87921;-79
2023/05/13 14:27:39;;;;;;;5.28;3.50;;;19.60;71.60;;;;;;6238275;22;87672;-80
2023/05/13 14:30:06;;;;;;;5.22;2.88;;;19.70;71.40;;;;;;6242930;22;87012;-77
2023/05/13 14:32:34;;;;;;;3.70;2.22;;;19.80;69.40;;;;;;6241519;22;88590;-78
2023/05/13 14:35:00;;;;;;;4.13;2.10;;;19.70;69.20;;;;;;6241469;22;88311;-79
2023/05/13 14:37:25;;;;;;;3.65;2.00;;;19.70;70.10;;;;;;6239424;22;88786;-79
2023/05/13 14:39:51;;;;;;;4.00;2.05;;;19.80;70.20;;;;;;6243106;22;87725;-79
2023/05/13 14:42:18;;;;;;;3.78;1.80;;;19.80;70.60;;;;;;6243151;22;88780;-78
2023/05/13 14:44:43;;;;;;;5.18;2.05;;;20.00;69.70;;;;;;6242616;22;87796;-80
2023/05/13 14:47:09;;;;;;;3.35;1.65;;;20.10;69.90;;;;;;6240901;22;87056;-78
2023/05/13 14:49:35;;;;;;;3.95;1.33;;;20.10;68.80;;;;;;6245331;22;87357;-78
2023/05/13 14:52:01;;;;;;;1.90;0.93;;;20.20;69.20;;;;;;6243005;22;88412;-79
2023/05/13 14:54:26;;;;;;;4.07;0.65;;;20.20;69.10;;;;;;6245979;22;87165;-77
2023/05/13 14:56:52;;;;;;;3.25;1.17;;;20.30;68.40;;;;;;6245385;22;87455;-78
2023/05/13 14:59:18;;;;;;;1.77;1.00;;;20.20;66.70;;;;;;6243279;22;87682;-78
2023/05/13 15:01:44;;;;;;;2.08;0.65;;;20.10;69.80;;;;;;6244747;22;89547;-78
2023/05/13 15:04:10;;;;;;;2.10;0.65;;;20.20;68.80;;;;;;6245708;22;89123;-77
2023/05/13 15:06:37;;;;;;;2.28;1.00;;;20.30;69.20;;;;;;6246856;22;87468;-78
2023/05/13 15:09:03;;;;;;;2.38;1.00;;;20.50;68.90;;;;;;6246814;22;87482;-80
2023/05/13 15:11:29;;;;;;;3.53;1.45;;;20.40;66.70;;;;;;6245756;22;89179;-76
2023/05/13 15:13:54;;;;;;;4.00;1.15;;;20.30;69.30;;;;;;6246996;22;88153;-77
2023/05/13 15:16:20;;;;;;;2.70;1.30;;;20.20;68.80;;;;;;6247524;22;87803;-76
2023/05/13 15:18:46;;;;;;;2.92;1.42;;;20.20;68.90;;;;;;6217660;22;87031;-77
2023/05/13 15:21:12;;;;;;;4.88;1.30;;;20.20;68.90;;;;;;6241739;22;88393;-78
2023/05/13 15:23:37;;;;;;;3.42;1.45;;;20.30;70.50;;;;;;6240276;22;87701;-78
2023/05/13 15:26:03;;;;;;;4.00;1.85;;;20.40;70.00;;;;;;6240779;22;88796;-78
2023/05/13 15:28:29;;;;;;;3.42;1.83;;;20.20;68.20;;;;;;6233644;22;87594;-80
2023/05/13 15:30:55;;;;;;;5.45;1.92;;;19.90;68.90;;;;;;6242099;22;87611;-79
2023/05/13 15:33:20;;;;;;;4.22;2.33;;;19.70;69.70;;;;;;6233123;22;88157;-81
2023/05/13 17:33:12;;;;;;;8.52;4.28;;;16.10;80.80;;;;;;3521904;22;95464;-72
2023/05/13 17:35:38;;;;;;;7.70;3.58;;;16.00;81.00;;;;;;6284272;22;87412;-71
2023/05/13 17:38:04;;;;;;;10.50;4.28;;;16.00;81.20;;;;;;6284311;22;87373;-71
2023/05/13 17:40:30;;;;;;;11.32;3.20;;;16.00;81.60;;;;;;6284159;22;87841;-72
2023/05/13 17:43:01;;;;;;;7.68;3.70;;;16.00;86.20;;;;;;6284416;22;87124;-71
2023/05/13 17:45:30;;;;;;;6.88;3.92;;;16.00;82.40;;;;;;6283743;22;88601;-72
2023/05/13 17:47:56;;;;;;;8.90;3.83;;;16.00;81.60;;;;;;6282740;22;88012;-71
2023/05/13 17:50:21;;;;;;;9.18;3.58;;;15.90;82.60;;;;;;6285260;22;87394;-72
2023/05/13 17:52:47;;;;;;;6.75;3.67;;;16.00;82.20;;;;;;6282508;22;87412;-71
2023/05/13 17:55:13;;;;;;;6.50;3.72;;;16.00;83.30;;;;;;6281279;22;88649;-71
2023/05/13 17:57:39;;;;;;;7.78;4.20;;;16.00;82.00;;;;;;6284189;22;87619;-71
2023/05/13 18:00:05;;;;;;;6.95;3.70;;;15.90;82.10;;;;;;6286114;22;87447;-71
2023/05/13 18:02:38;;;;;;;6.95;4.05;;;15.80;82.20;;;;;;6283497;22;87584;-71
2023/05/13 18:05:05;;;;;;;7.00;3.50;;;15.80;82.30;;;;;;6283491;22;89607;-71
2023/05/13 18:07:31;;;;;;;6.05;3.22;;;15.80;82.40;;;;;;6283753;22;89239;-71
2023/05/13 18:09:57;;;;;;;8.35;3.58;;;15.90;83.80;;;;;;6285376;22;87450;-71
2023/05/13 18:12:24;;;;;;;8.60;3.67;;;15.90;83.00;;;;;;6283306;22;87278;-71
2023/05/13 18:14:49;;;;;;;8.15;4.22;;;15.80;82.60;;;;;;6282317;22;88574;-71
2023/05/13 18:17:15;;;;;;;7.85;4.15;;;15.80;82.60;;;;;;6282485;22;88170;-71
2023/05/13 18:19:41;;;;;;;9.05;4.35;;;15.80;82.60;;;;;;6257823;22;87432;-71
2023/05/13 18:22:10;;;;;;;7.53;3.67;;;15.80;82.20;;;;;;6281602;22;86340;-71